createdAt,value
2022-12-23T00:07:11.373Z,14.23
2022-12-23T00:14:58.217Z,20.48
2022-12-23T00:22:18.014Z,19.23
2022-12-23T00:29:36.249Z,23.80
2022-12-23T00:36:54.704Z,29.52
2022-12-23T00:44:14.474Z,26.20
2022-12-23T00:51:32.656Z,21.08
2022-12-23T00:58:50.975Z,22.88
2022-12-23T01:06:10.825Z,24.02
2022-12-23T01:13:28.934Z,22.70
2022-12-23T01:20:47.204Z,24.42
2022-12-23T01:28:07.345Z,21.60
2022-12-23T01:35:25.558Z,23.65
2022-12-23T01:42:47.434Z,19.35
2022-12-23T01:50:10.523Z,24.08
2022-12-23T01:57:29.437Z,23.80
2022-12-23T02:04:48.358Z,19.55
2022-12-23T02:12:31.868Z,18.67
2022-12-23T02:20:09.221Z,20.83
2022-12-23T02:27:31.619Z,15.88
2022-12-23T02:34:55.522Z,16.30
2022-12-23T02:42:17.999Z,20.23
2022-12-23T02:49:39.465Z,17.98
2022-12-23T02:57:01.893Z,18.33
2022-12-23T03:04:20.230Z,21.70
2022-12-23T03:11:46.601Z,17.88
2022-12-23T03:19:16.272Z,19.58
2022-12-23T03:26:40.225Z,21.02
2022-12-23T03:34:00.876Z,20.88
2022-12-23T03:41:22.614Z,22.80
2022-12-23T03:48:45.710Z,20.08
2022-12-23T03:56:09.227Z,20.67
2022-12-23T04:10:50.003Z,22.92
2022-12-23T04:18:08.479Z,20.92
2022-12-23T04:25:27.975Z,25.05
2022-12-23T04:32:46.343Z,24.10
2022-12-23T04:40:04.937Z,27.20
2022-12-23T04:47:24.500Z,29.95
2022-12-23T04:54:46.300Z,26.75
2022-12-23T05:02:05.068Z,28.55
2022-12-23T05:09:25.441Z,28.40
2022-12-23T05:16:43.736Z,27.98
2022-12-23T05:24:02.004Z,27.52
2022-12-23T05:31:21.820Z,28.40
2022-12-23T05:38:41.690Z,29.35
2022-12-23T05:46:00.190Z,27.27
2022-12-23T05:53:20.580Z,26.60
2022-12-23T06:00:39.139Z,28.73
2022-12-23T06:07:57.634Z,27.55
2022-12-23T06:15:17.505Z,27.83
2022-12-23T06:22:35.805Z,24.05
2022-12-23T06:29:54.184Z,25.90
2022-12-23T06:37:16.125Z,23.67
2022-12-23T06:44:34.458Z,25.05
2022-12-23T06:51:53.107Z,24.15
2022-12-23T06:59:13.344Z,25.70
2022-12-23T07:06:31.735Z,25.92
2022-12-23T07:13:52.315Z,25.90
2022-12-23T07:21:21.220Z,24.90
2022-12-23T07:28:46.075Z,19.97
2022-12-23T07:36:04.362Z,25.70
2022-12-23T07:43:24.232Z,24.77
2022-12-23T07:50:44.779Z,21.73
2022-12-23T07:58:03.072Z,27.10
2022-12-23T08:05:24.483Z,22.10
2022-12-23T08:12:42.979Z,24.00
2022-12-23T08:20:01.603Z,23.35
2022-12-23T08:27:21.903Z,20.20
2022-12-23T08:34:40.476Z,21.33
2022-12-23T08:41:58.810Z,23.30
2022-12-23T08:49:18.770Z,19.83
2022-12-23T08:56:40.838Z,20.92
2022-12-23T09:03:59.429Z,18.30
2022-12-23T09:11:21.518Z,18.73
2022-12-23T09:18:40.233Z,16.25
2022-12-23T09:25:58.844Z,15.85
2022-12-23T09:33:18.680Z,15.65
2022-12-23T09:40:39.322Z,17.83
2022-12-23T09:47:58.460Z,12.38
2022-12-23T09:55:19.708Z,13.07
2022-12-23T10:02:53.736Z,14.25
2022-12-23T10:10:19.774Z,18.48
2022-12-23T10:17:41.736Z,20.35
2022-12-23T10:25:00.470Z,19.00
2022-12-23T10:32:25.558Z,22.05
2022-12-23T10:39:53.155Z,22.63
2022-12-23T10:47:18.515Z,22.15
2022-12-23T10:54:38.915Z,19.00
2022-12-23T11:02:01.623Z,15.02
2022-12-23T11:09:22.682Z,16.10
2022-12-23T11:16:47.432Z,9.07
2022-12-23T11:24:19.676Z,9.15
2022-12-23T11:31:37.996Z,8.65
2022-12-23T11:39:05.415Z,7.40
2022-12-23T11:46:27.422Z,11.02
2022-12-23T11:53:45.803Z,10.93
2022-12-23T12:01:17.338Z,14.23
2022-12-23T12:08:38.421Z,9.75
2022-12-23T12:16:29.467Z,10.43
2022-12-23T12:24:08.340Z,5.38
2022-12-23T12:31:35.022Z,8.35
2022-12-23T12:38:54.358Z,7.40
2022-12-23T12:46:21.886Z,12.30
2022-12-23T12:53:49.581Z,10.15
2022-12-23T13:01:23.093Z,10.05
2022-12-23T13:08:57.179Z,13.68
2022-12-23T13:16:24.203Z,10.75
2022-12-23T13:23:49.732Z,9.65
2022-12-23T13:31:14.852Z,11.35
2022-12-23T13:38:45.971Z,7.70
2022-12-23T13:46:11.941Z,5.65
2022-12-23T13:53:41.716Z,9.80
2022-12-23T14:01:01.105Z,11.70
2022-12-23T14:08:28.030Z,7.93
2022-12-23T14:16:00.334Z,10.98
2022-12-23T14:23:31.646Z,10.48
2022-12-23T14:30:50.195Z,14.25
2022-12-23T14:38:24.757Z,32.63
2022-12-23T14:45:44.993Z,10.38
2022-12-23T14:53:03.360Z,13.10
2022-12-23T15:00:21.637Z,8.25
2022-12-23T15:07:43.554Z,10.25
2022-12-23T15:15:03.441Z,18.25
2022-12-23T15:22:28.490Z,13.45
2022-12-23T15:29:53.980Z,16.42
2022-12-23T15:37:13.066Z,12.48
2022-12-23T15:44:39.535Z,13.75
2022-12-23T15:52:13.791Z,22.05
2022-12-23T15:59:38.998Z,18.95
2022-12-23T16:07:05.442Z,17.05
2022-12-23T16:14:35.500Z,18.60
2022-12-23T16:21:53.942Z,17.30
2022-12-23T16:29:14.574Z,16.52
2022-12-23T16:36:37.703Z,17.83
2022-12-23T16:43:56.028Z,22.08
2022-12-23T16:51:17.132Z,20.27
2022-12-23T16:58:35.583Z,17.48
2022-12-23T17:05:53.862Z,19.38
2022-12-23T17:13:14.644Z,19.90
2022-12-23T17:20:35.494Z,23.50
2022-12-23T17:27:55.784Z,27.70
2022-12-23T17:35:17.198Z,29.90
2022-12-23T17:42:35.737Z,25.35
2022-12-23T17:49:54.034Z,25.40
2022-12-23T17:57:22.458Z,22.05
2022-12-23T18:04:40.800Z,35.83
2022-12-23T18:11:59.007Z,33.30
2022-12-23T18:19:21.062Z,31.10
2022-12-23T18:26:39.541Z,32.58
2022-12-23T18:33:58.039Z,43.33
2022-12-23T18:41:18.103Z,43.28
2022-12-23T18:48:36.325Z,44.17
2022-12-23T18:55:54.982Z,57.05
2022-12-23T19:03:24.960Z,40.40
2022-12-23T19:10:43.396Z,41.55
2022-12-23T19:18:01.963Z,38.22
2022-12-23T19:25:22.914Z,38.50
2022-12-23T19:32:41.531Z,56.53
2022-12-23T19:40:00.550Z,53.40
2022-12-23T19:47:20.617Z,55.45
2022-12-23T19:54:39.152Z,54.70
2022-12-23T20:01:58.126Z,73.32
2022-12-23T20:09:18.386Z,66.20
2022-12-23T20:16:37.564Z,65.13
2022-12-23T20:23:56.557Z,56.40
2022-12-23T20:31:19.274Z,52.47
2022-12-23T20:38:38.919Z,54.33
2022-12-23T20:45:57.257Z,57.25
2022-12-23T20:53:17.064Z,67.15
2022-12-23T21:00:35.370Z,64.07
2022-12-23T21:07:53.813Z,59.28
2022-12-23T21:15:14.992Z,60.33
2022-12-23T21:22:33.270Z,54.13
2022-12-23T21:29:51.573Z,64.03
2022-12-23T21:37:11.894Z,65.75
2022-12-23T21:44:30.197Z,70.28
2022-12-23T21:51:48.649Z,72.18
2022-12-23T21:59:10.332Z,67.70
2022-12-23T22:06:29.987Z,72.53
2022-12-23T22:13:48.771Z,70.05
2022-12-23T22:21:11.127Z,71.57
2022-12-23T22:28:33.655Z,63.28
2022-12-23T22:35:55.823Z,50.65
2022-12-23T22:43:15.577Z,50.75
2022-12-23T22:50:33.944Z,43.75
2022-12-23T22:57:52.239Z,37.38
2022-12-23T23:05:13.184Z,39.25
2022-12-23T23:12:31.698Z,37.42
2022-12-23T23:19:50.400Z,40.50
2022-12-23T23:27:10.093Z,40.85
2022-12-23T23:34:28.420Z,40.08
2022-12-23T23:41:47.210Z,38.25
2022-12-23T23:49:06.911Z,46.03
2022-12-23T23:56:27.292Z,51.92
